CheckWX is a tool to help pilots better visualize weather data.  It is not intended as a substitute for an official pre-flight weather briefing.

12:19:40 UTC

KRZR METAR
Cleveland Regional Jetport Airport
Cleveland, Tennessee, USA
Current

45 mins ago

KRZR 221135Z AUTO 03006KT 3SM BR OVC006 08/08 A3017 RMK A01
Observed
Feb-22 @ 11:35 UTC
Wind
  • 030° at 6 KTS
Visibility
3 SM
Flight Rules
IFR
Conditions
Mist
Cloud Levels
  • Overcast at 600' AGL
Temperature
C / 46°F
Dewpoint
C / 46°F
Humidity
100%
Altimeter
30.17" Hg
Pressure
1021.72 hPa
Previous

1 hour ago

KRZR 221115Z AUTO 36007KT 5SM BR OVC006 08/08 A3017 RMK A01
Observed
Feb-22 @ 11:15 UTC
Wind
  • 360° at 7 KTS
Visibility
5 SM
Flight Rules
IFR
Conditions
Mist
Cloud Levels
  • Overcast at 600' AGL
Temperature
C / 46°F
Dewpoint
C / 46°F
Humidity
100%
Altimeter
30.17" Hg
Pressure
1021.72 hPa
Previous

1 hour ago

KRZR 221055Z AUTO 02008KT 5SM BR OVC007 08/08 A3016 RMK A01 P0007
Observed
Feb-22 @ 10:55 UTC
Wind
  • 020° at 8 KTS
Visibility
5 SM
Flight Rules
IFR
Conditions
Mist
Cloud Levels
  • Overcast at 700' AGL
Temperature
C / 46°F
Dewpoint
C / 46°F
Humidity
100%
Altimeter
30.16" Hg
Pressure
1021.32 hPa
Current Rain
0.07"